Atlantic - Newfoundland: Past 24 Hour Conditions

 

Miscou Island

03:00 PM ADT 29 August 2014
This table is a summary of hourly weather conditions for the past 24 hours.
Date / Time
(ADT)
Wind(knots) Conditions Visibility(km) Pressure(kPa) Air tempC) Relative humidity(%) Dew pointC)
29 August 2014
15:00 ENE 7 N/A N/A 102.1 16 57 8
14:00 NE 7 N/A N/A 102.1 16 65 9
13:00 NNE 9 N/A N/A 102.1 15 67 9
12:00 NNE 11 N/A N/A 102.1 15 69 9
11:00 NNE 12 gust 18 N/A N/A 102.0 15 69 9
10:00 NNE 12 gust 19 N/A N/A 101.9 15 69 9
9:00 NNE 15 gust 21 N/A N/A 101.8 14 73 9
8:00 NNE 16 N/A N/A 101.7 14 74 9
7:00 NNE 16 gust 21 N/A N/A 101.6 14 73 9
6:00 NNE 17 gust 22 N/A N/A 101.5 14 72 9
5:00 N 17 N/A N/A 101.4 14 77 10
4:00 N 21 N/A N/A 101.4 14 75 9
3:00 NNE 21 gust 26 N/A N/A 101.3 14 68 9
2:00 NNE 19 gust 28 N/A N/A 101.3 14 65 8
1:00 NNE 18 gust 24 N/A N/A 101.2 14 59 6
0:00 NNE 22 gust 28 N/A N/A 101.2 14 68 8
28 August 2014
23:00 NNE 18 gust 28 N/A N/A 101.1 14 68 8
22:00 NNE 20 gust 26 N/A N/A 101.1 14 77 10
21:00 NNE 23 gust 29 N/A N/A 101.1 14 85 11
20:00 NNE 20 gust 28 N/A N/A 101.0 14 89 12
19:00 NNE 22 gust 27 N/A N/A 100.9 14 89 12
18:00 NNE 18 gust 27 N/A N/A 100.9 14 89 12
17:00 NE 22 N/A N/A 100.8 15 85 12
16:00 NE 17 gust 24 N/A N/A 100.8 15 85 12
15:00 NE 20 gust 25 N/A N/A 100.8 14 85 12
 
Map of Atlantic - Newfoundland marine weather areas Southwestern Grand Banks - 44138 Banquereau - 44139 Tail of the Bank - 44140 Nickerson Bank - 44251 Northeast Burgeo Bank - 44255 Blanc-Sablon Airport Cap Whittle Chevery Natashquan Airport Heath Point Miscou Island Grand Étang Ingonish Beach North Mountain St.Paul Island J.A. Douglas McCurdy Sydney Airport Charlottetown Airport East Point North Cape Argentia Bonavista Burgeo Cape Race Corner Brook Daniel's Harbour Englee Ferolle Point La Scie Port aux Basques Rocky Harbour Sagona Island St. Anthony Airport St. John's Int'l Airport St. Lawrence Stephenville Airport Twillingate Winterland Wreckhouse Cartwright Airport Mary's Harbour Grates Cove Pool's Island Marticot Island Long Pond Îles de la Madeleine Airport
Legend: buoyBuoy land stationLand Station